createdAt,value
2022-11-07T00:00:07.647Z,82.47
2022-11-07T00:00:18.447Z,82.57
2022-11-07T00:00:29.238Z,82.47
2022-11-07T00:00:42.925Z,82.47
2022-11-07T00:00:57.576Z,82.37
2022-11-07T00:01:10.795Z,82.47
2022-11-07T00:01:22.602Z,82.68
2022-11-07T00:01:34.396Z,82.68
2022-11-07T00:01:46.320Z,82.78
2022-11-07T00:01:59.289Z,82.68
2022-11-07T00:02:12.753Z,82.57
2022-11-07T00:02:23.633Z,82.47
2022-11-07T00:02:36.669Z,82.47
2022-11-07T00:02:49.131Z,82.47
2022-11-07T00:02:59.981Z,82.37
2022-11-07T00:03:10.845Z,82.27
2022-11-07T00:03:22.697Z,82.17
2022-11-07T00:03:33.505Z,82.06
2022-11-07T00:03:45.765Z,82.17
2022-11-07T00:03:56.567Z,82.17
2022-11-07T00:04:07.336Z,82.17
2022-11-07T00:04:19.794Z,82.06
2022-11-07T00:04:30.644Z,82.06
2022-11-07T00:04:41.417Z,82.06
2022-11-07T00:04:52.154Z,81.96
2022-11-07T00:05:02.896Z,81.96
2022-11-07T00:05:13.694Z,81.86
2022-11-07T00:05:24.445Z,81.96
2022-11-07T00:05:37.665Z,82.06
2022-11-07T00:05:49.405Z,81.96
2022-11-07T00:06:02.200Z,81.86
2022-11-07T00:06:13.925Z,81.86
2022-11-07T00:06:26.145Z,81.86
2022-11-07T00:06:38.347Z,81.86
2022-11-07T00:06:52.086Z,81.96
2022-11-07T00:07:04.048Z,82.06
2022-11-07T00:07:15.767Z,82.06
2022-11-07T00:07:27.496Z,82.06
2022-11-07T00:07:39.955Z,82.06
2022-11-07T00:07:52.404Z,82.06
2022-11-07T00:08:05.560Z,82.17
2022-11-07T00:08:16.435Z,82.27
2022-11-07T00:08:27.227Z,82.27
2022-11-07T00:08:37.986Z,82.27
2022-11-07T00:08:49.726Z,82.37
2022-11-07T00:09:01.696Z,82.27
2022-11-07T00:09:13.907Z,82.17
2022-11-07T00:09:25.651Z,82.17
2022-11-07T00:09:37.356Z,82.17
2022-11-07T00:09:48.128Z,82.17
2022-11-07T00:09:58.915Z,82.27
2022-11-07T00:10:10.631Z,82.37
2022-11-07T00:10:22.546Z,82.27
2022-11-07T00:10:34.267Z,82.17
2022-11-07T00:10:46.045Z,82.17
2022-11-07T00:10:58.525Z,82.17
2022-11-07T00:11:09.259Z,82.17
2022-11-07T00:11:20.036Z,82.27
2022-11-07T00:11:31.737Z,82.27
2022-11-07T00:11:44.436Z,82.17
2022-11-07T00:11:55.197Z,82.06
2022-11-07T00:12:05.968Z,82.06
2022-11-07T00:12:18.198Z,81.96
2022-11-07T00:12:28.979Z,81.96
2022-11-07T00:12:42.211Z,81.96
2022-11-07T00:12:55.415Z,81.96
2022-11-07T00:13:08.569Z,81.96
2022-11-07T00:13:19.327Z,81.86
2022-11-07T00:13:31.047Z,81.86
2022-11-07T00:13:41.816Z,81.96
2022-11-07T00:13:52.660Z,82.06
2022-11-07T00:14:04.387Z,82.17
2022-11-07T00:14:15.152Z,82.17
2022-11-07T00:14:25.920Z,82.27
2022-11-07T00:14:37.613Z,82.37
2022-11-07T00:14:48.368Z,82.37
2022-11-07T00:14:59.128Z,82.47
2022-11-07T00:15:11.605Z,82.47
2022-11-07T00:15:24.149Z,82.37
2022-11-07T00:15:36.588Z,82.37
2022-11-07T00:15:48.368Z,82.27
2022-11-07T00:16:00.604Z,82.37
2022-11-07T00:16:11.368Z,82.47
2022-11-07T00:16:23.348Z,82.47
2022-11-07T00:16:35.589Z,82.47
2022-11-07T00:16:48.049Z,82.57
2022-11-07T00:17:01.271Z,82.68
2022-11-07T00:17:13.747Z,82.57
2022-11-07T00:17:24.535Z,82.57
2022-11-07T00:17:36.985Z,82.57
2022-11-07T00:17:48.728Z,82.68
2022-11-07T00:17:59.532Z,82.78
2022-11-07T00:18:12.048Z,82.78
2022-11-07T00:18:23.752Z,82.78
2022-11-07T00:18:35.470Z,82.78
2022-11-07T00:18:47.200Z,82.68
2022-11-07T00:18:58.921Z,82.68
2022-11-07T00:19:12.169Z,82.78
2022-11-07T00:19:24.619Z,82.89
2022-11-07T00:19:36.867Z,82.99
2022-11-07T00:19:48.589Z,82.99
2022-11-07T00:20:01.039Z,82.99
2022-11-07T00:20:11.797Z,82.99
2022-11-07T00:20:23.540Z,83.09
2022-11-07T00:20:34.289Z,83.09
2022-11-07T00:20:46.491Z,83.19
2022-11-07T00:20:59.326Z,83.19
2022-11-07T00:21:11.789Z,83.19
2022-11-07T00:21:23.539Z,83.40
2022-11-07T00:21:34.310Z,83.40
2022-11-07T00:21:46.739Z,83.29
2022-11-07T00:21:58.442Z,82.89
2022-11-07T00:22:09.217Z,82.57
2022-11-07T00:22:21.448Z,82.37
2022-11-07T00:22:32.200Z,82.37
2022-11-07T00:22:43.930Z,82.37
2022-11-07T00:22:56.187Z,82.37
2022-11-07T00:23:06.958Z,82.47
2022-11-07T00:23:20.199Z,82.57
2022-11-07T00:23:31.699Z,82.57
2022-11-07T00:23:43.930Z,82.68
2022-11-07T00:23:54.689Z,82.68
2022-11-07T00:24:05.439Z,82.57
2022-11-07T00:24:17.869Z,82.47
2022-11-07T00:24:30.321Z,82.57
2022-11-07T00:24:41.138Z,82.57
2022-11-07T00:24:52.860Z,82.57
2022-11-07T00:25:04.603Z,82.68
2022-11-07T00:25:17.232Z,82.78
2022-11-07T00:25:28.954Z,82.89
2022-11-07T00:25:39.780Z,83.09
2022-11-07T00:25:51.980Z,83.09
2022-11-07T00:26:03.735Z,83.19
2022-11-07T00:26:16.177Z,83.19
2022-11-07T00:26:26.984Z,83.19
2022-11-07T00:26:38.701Z,83.19
2022-11-07T00:26:49.568Z,83.09
2022-11-07T00:27:02.149Z,83.09
2022-11-07T00:27:14.021Z,83.09
2022-11-07T00:27:24.907Z,83.09
2022-11-07T00:27:37.385Z,83.09
2022-11-07T00:27:49.841Z,83.09
2022-11-07T00:28:00.621Z,83.23
2022-11-07T00:28:11.402Z,83.23
2022-11-07T00:28:23.120Z,83.33
2022-11-07T00:28:35.571Z,83.44
2022-11-07T00:28:47.331Z,83.44
2022-11-07T00:28:59.571Z,83.44
2022-11-07T00:29:10.342Z,83.44
2022-11-07T00:29:21.100Z,83.44
2022-11-07T00:29:33.552Z,83.44
2022-11-07T00:29:45.291Z,83.44
2022-11-07T00:29:57.520Z,83.33
2022-11-07T00:30:09.982Z,83.23
2022-11-07T00:30:21.711Z,83.13
2022-11-07T00:30:33.431Z,83.03
2022-11-07T00:30:44.206Z,83.03
2022-11-07T00:30:55.020Z,83.03
2022-11-07T00:31:07.246Z,83.03
2022-11-07T00:31:19.231Z,83.13
2022-11-07T00:31:30.222Z,83.13
2022-11-07T00:31:42.763Z,83.13
2022-11-07T00:31:55.212Z,83.23
2022-11-07T00:32:07.701Z,83.33
2022-11-07T00:32:18.442Z,83.23
2022-11-07T00:32:30.134Z,83.13
2022-11-07T00:32:41.863Z,83.13
2022-11-07T00:32:56.339Z,83.03
2022-11-07T00:33:09.933Z,83.03
2022-11-07T00:33:20.712Z,83.13
2022-11-07T00:33:34.013Z,83.23
2022-11-07T00:33:46.961Z,83.44
2022-11-07T00:33:59.445Z,83.54
2022-11-07T00:34:11.186Z,83.54
2022-11-07T00:34:21.972Z,83.54
2022-11-07T00:34:33.683Z,83.64
2022-11-07T00:34:44.444Z,83.64
2022-11-07T00:34:55.242Z,83.75
2022-11-07T00:35:05.981Z,83.85
2022-11-07T00:35:18.842Z,83.85
2022-11-07T00:35:30.602Z,83.85
2022-11-07T00:35:41.342Z,83.95
2022-11-07T00:35:53.823Z,83.95
2022-11-07T00:36:05.533Z,83.95
2022-11-07T00:36:18.033Z,84.05
2022-11-07T00:36:30.529Z,84.16
2022-11-07T00:36:42.992Z,84.16
2022-11-07T00:36:53.793Z,84.26
2022-11-07T00:37:04.545Z,84.16
2022-11-07T00:37:15.322Z,84.16
2022-11-07T00:37:27.793Z,84.26
2022-11-07T00:37:41.015Z,84.36
2022-11-07T00:37:51.803Z,84.36
2022-11-07T00:38:02.564Z,84.36
2022-11-07T00:38:14.255Z,83.95
2022-11-07T00:38:25.984Z,83.44
2022-11-07T00:38:37.714Z,83.13
2022-11-07T00:38:48.503Z,83.13
2022-11-07T00:39:01.456Z,83.13
2022-11-07T00:39:12.240Z,83.23
2022-11-07T00:39:23.963Z,83.23
2022-11-07T00:39:35.705Z,83.33
2022-11-07T00:39:48.144Z,83.33
2022-11-07T00:40:00.593Z,83.44
2022-11-07T00:40:13.045Z,83.54
2022-11-07T00:40:23.848Z,83.54
2022-11-07T00:40:34.616Z,83.54
2022-11-07T00:40:47.054Z,83.54
2022-11-07T00:40:59.522Z,83.54
2022-11-07T00:41:12.205Z,83.54
2022-11-07T00:41:23.936Z,83.54
2022-11-07T00:41:34.751Z,83.54
2022-11-07T00:41:46.944Z,83.54
2022-11-07T00:41:58.685Z,83.54
2022-11-07T00:42:09.584Z,83.44
2022-11-07T00:42:20.364Z,83.33
2022-11-07T00:42:32.114Z,83.23
2022-11-07T00:42:43.814Z,83.23
2022-11-07T00:42:54.565Z,83.13
2022-11-07T00:43:05.294Z,83.03
2022-11-07T00:43:17.744Z,83.13
2022-11-07T00:43:29.464Z,83.23
2022-11-07T00:43:42.604Z,83.33
2022-11-07T00:43:55.534Z,83.33
2022-11-07T00:44:08.340Z,83.23
2022-11-07T00:44:20.845Z,83.23
2022-11-07T00:44:31.584Z,83.23
2022-11-07T00:44:42.374Z,83.23
2022-11-07T00:44:54.125Z,83.23
2022-11-07T00:45:05.865Z,83.23
2022-11-07T00:45:17.595Z,83.23
2022-11-07T00:45:28.375Z,83.23
2022-11-07T00:45:39.176Z,83.23
2022-11-07T00:45:52.398Z,83.13
2022-11-07T00:46:04.847Z,83.13
2022-11-07T00:46:17.325Z,83.13
2022-11-07T00:46:29.776Z,83.23
2022-11-07T00:46:40.576Z,83.33
2022-11-07T00:46:52.835Z,83.33
2022-11-07T00:47:04.805Z,83.33
2022-11-07T00:47:15.565Z,83.33
2022-11-07T00:47:28.786Z,83.44
2022-11-07T00:47:39.533Z,83.44
2022-11-07T00:47:51.265Z,83.44
2022-11-07T00:48:02.988Z,83.33
2022-11-07T00:48:15.195Z,83.33
2022-11-07T00:48:26.923Z,83.44
2022-11-07T00:48:38.674Z,83.44
2022-11-07T00:48:49.468Z,83.44
2022-11-07T00:49:00.286Z,83.54
2022-11-07T00:49:11.057Z,83.54
2022-11-07T00:49:21.826Z,83.54
2022-11-07T00:49:32.587Z,83.64
2022-11-07T00:49:45.039Z,83.75
2022-11-07T00:49:58.785Z,83.85
2022-11-07T00:50:12.008Z,84.05
2022-11-07T00:50:24.717Z,84.05
2022-11-07T00:50:36.935Z,84.05
2022-11-07T00:50:48.628Z,83.85
2022-11-07T00:51:00.907Z,83.54
2022-11-07T00:51:12.866Z,83.44
2022-11-07T00:51:25.126Z,83.33
2022-11-07T00:51:35.956Z,83.23
2022-11-07T00:51:46.707Z,83.33
2022-11-07T00:52:00.408Z,83.33
2022-11-07T00:52:12.647Z,83.33
2022-11-07T00:52:25.888Z,83.33
2022-11-07T00:52:37.656Z,83.44
2022-11-07T00:52:48.467Z,83.54
2022-11-07T00:52:59.288Z,83.64
2022-11-07T00:53:12.021Z,83.64
2022-11-07T00:53:23.009Z,83.75
2022-11-07T00:53:35.444Z,83.75
2022-11-07T00:53:46.199Z,83.75
2022-11-07T00:53:57.028Z,83.85
2022-11-07T00:54:07.806Z,83.85
2022-11-07T00:54:19.778Z,83.85
2022-11-07T00:54:32.276Z,83.95
2022-11-07T00:54:44.306Z,84.05
2022-11-07T00:54:55.119Z,84.05
2022-11-07T00:55:05.867Z,83.75
2022-11-07T00:55:16.610Z,83.64
2022-11-07T00:55:28.318Z,83.64
2022-11-07T00:55:40.058Z,83.54
2022-11-07T00:55:52.527Z,83.54
2022-11-07T00:56:04.262Z,83.54
2022-11-07T00:56:16.497Z,83.54
2022-11-07T00:56:29.009Z,83.54
2022-11-07T00:56:40.738Z,83.64
2022-11-07T00:56:53.957Z,83.75
2022-11-07T00:57:04.727Z,83.64
2022-11-07T00:57:16.945Z,83.54
2022-11-07T00:57:27.677Z,83.44
2022-11-07T00:57:38.457Z,83.33
2022-11-07T00:57:49.209Z,83.23
2022-11-07T00:58:01.164Z,83.23
2022-11-07T00:58:14.085Z,83.23
2022-11-07T00:58:26.437Z,83.23
2022-11-07T00:58:38.170Z,83.23
2022-11-07T00:58:49.889Z,83.23
2022-11-07T00:59:00.671Z,83.33
2022-11-07T00:59:13.369Z,83.44
2022-11-07T00:59:24.118Z,83.64
2022-11-07T00:59:34.881Z,83.75
2022-11-07T00:59:45.639Z,83.75
2022-11-07T00:59:57.368Z,83.75
2022-11-07T01:00:09.651Z,83.75
2022-11-07T01:00:21.447Z,83.85
2022-11-07T01:00:32.218Z,83.85
2022-11-07T01:00:45.949Z,83.85
2022-11-07T01:00:57.787Z,83.85
2022-11-07T01:01:10.947Z,83.85
2022-11-07T01:01:24.509Z,83.64
2022-11-07T01:01:36.505Z,83.44
2022-11-07T01:01:49.204Z,83.44
2022-11-07T01:02:01.808Z,83.44
2022-11-07T01:02:15.136Z,83.44
2022-11-07T01:02:26.879Z,83.44
2022-11-07T01:02:40.224Z,83.44
2022-11-07T01:02:51.115Z,83.54
2022-11-07T01:03:01.946Z,83.54
2022-11-07T01:03:14.756Z,83.54
2022-11-07T01:03:27.113Z,83.54
2022-11-07T01:03:38.959Z,83.54
2022-11-07T01:03:49.705Z,83.44
2022-11-07T01:04:01.971Z,83.44
2022-11-07T01:04:13.722Z,83.33
2022-11-07T01:04:26.671Z,83.33
2022-11-07T01:04:37.493Z,83.44
2022-11-07T01:04:51.764Z,83.44
2022-11-07T01:05:04.750Z,83.54
2022-11-07T01:05:16.534Z,83.64
2022-11-07T01:05:27.290Z,83.64
2022-11-07T01:05:38.020Z,83.75
2022-11-07T01:05:48.801Z,83.85
2022-11-07T01:06:01.302Z,83.85
2022-11-07T01:06:13.280Z,83.95
2022-11-07T01:06:24.019Z,83.95
2022-11-07T01:06:35.740Z,83.95
2022-11-07T01:06:46.645Z,84.05
2022-11-07T01:06:58.851Z,84.05
2022-11-07T01:07:09.630Z,84.05
2022-11-07T01:07:20.409Z,83.95
2022-11-07T01:07:34.143Z,83.95
2022-11-07T01:07:46.570Z,83.85
2022-11-07T01:07:57.411Z,83.85
2022-11-07T01:08:09.875Z,83.85
2022-11-07T01:08:20.612Z,83.95
2022-11-07T01:08:32.340Z,83.85
2022-11-07T01:08:43.118Z,83.95
2022-11-07T01:08:54.854Z,83.95
2022-11-07T01:09:05.590Z,83.85
2022-11-07T01:09:16.360Z,83.85
2022-11-07T01:09:29.300Z,83.75
2022-11-07T01:09:40.073Z,83.64
2022-11-07T01:09:50.866Z,83.54
2022-11-07T01:10:02.561Z,83.44
2022-11-07T01:10:15.028Z,83.44
2022-11-07T01:10:25.767Z,83.54
2022-11-07T01:10:38.259Z,83.44
2022-11-07T01:10:48.982Z,83.44
2022-11-07T01:11:02.192Z,83.44
2022-11-07T01:11:13.943Z,83.54
2022-11-07T01:11:26.453Z,83.54
2022-11-07T01:11:38.962Z,83.64
2022-11-07T01:11:51.245Z,83.75
2022-11-07T01:12:03.483Z,83.85
2022-11-07T01:12:14.270Z,83.95
2022-11-07T01:12:25.036Z,84.05
2022-11-07T01:12:36.823Z,84.05
2022-11-07T01:12:50.041Z,84.05
2022-11-07T01:13:02.513Z,84.16
2022-11-07T01:13:13.584Z,84.16
2022-11-07T01:13:26.192Z,84.16
2022-11-07T01:13:38.195Z,84.05
2022-11-07T01:13:50.672Z,84.05
2022-11-07T01:14:03.458Z,84.05
2022-11-07T01:14:15.153Z,84.05
2022-11-07T01:14:28.384Z,84.16
2022-11-07T01:14:39.223Z,84.16
2022-11-07T01:14:50.952Z,84.26
2022-11-07T01:15:01.705Z,84.26
2022-11-07T01:15:12.469Z,84.16
2022-11-07T01:15:23.242Z,84.16
2022-11-07T01:15:35.705Z,84.05
2022-11-07T01:15:46.452Z,83.95
2022-11-07T01:15:57.273Z,83.95
2022-11-07T01:16:08.062Z,83.85
2022-11-07T01:16:19.832Z,83.85
2022-11-07T01:16:31.595Z,83.95
2022-11-07T01:16:43.372Z,83.95
2022-11-07T01:16:54.153Z,83.95
2022-11-07T01:17:05.883Z,83.95
2022-11-07T01:17:17.637Z,83.85
2022-11-07T01:17:28.403Z,83.85
2022-11-07T01:17:40.887Z,83.85
2022-11-07T01:17:51.624Z,83.75
2022-11-07T01:18:02.404Z,83.75
2022-11-07T01:18:13.176Z,83.85
2022-11-07T01:18:23.955Z,83.85
2022-11-07T01:18:37.184Z,83.75
2022-11-07T01:18:47.964Z,83.85
2022-11-07T01:18:58.771Z,83.85
2022-11-07T01:19:10.503Z,83.85
2022-11-07T01:19:22.255Z,83.85
2022-11-07T01:19:34.504Z,83.75
2022-11-07T01:19:46.235Z,83.54
2022-11-07T01:19:57.069Z,83.44
2022-11-07T01:20:07.783Z,83.44
2022-11-07T01:20:18.576Z,83.33
2022-11-07T01:20:29.283Z,83.33
2022-11-07T01:20:40.072Z,83.23
2022-11-07T01:20:51.813Z,83.23
2022-11-07T01:21:04.064Z,83.33
2022-11-07T01:21:17.014Z,83.33
2022-11-07T01:21:28.763Z,83.33
2022-11-07T01:21:41.235Z,83.44
2022-11-07T01:21:53.025Z,83.44
2022-11-07T01:22:04.794Z,83.44
2022-11-07T01:22:16.576Z,83.44
2022-11-07T01:22:28.381Z,83.44
2022-11-07T01:22:40.092Z,83.54
2022-11-07T01:22:51.794Z,83.40
2022-11-07T01:23:04.034Z,83.40
2022-11-07T01:23:14.949Z,83.40
2022-11-07T01:23:27.603Z,83.40
2022-11-07T01:23:38.417Z,83.40
2022-11-07T01:23:50.895Z,83.40
2022-11-07T01:24:03.116Z,83.40
2022-11-07T01:24:13.935Z,83.54
2022-11-07T01:24:27.213Z,83.54
2022-11-07T01:24:38.945Z,83.70
2022-11-07T01:24:49.755Z,83.81
2022-11-07T01:25:01.455Z,83.95
2022-11-07T01:25:13.265Z,84.01
2022-11-07T01:25:24.075Z,84.16
2022-11-07T01:25:35.863Z,84.16
2022-11-07T01:25:47.584Z,84.26
2022-11-07T01:26:00.022Z,84.26
2022-11-07T01:26:13.007Z,84.16
2022-11-07T01:26:23.798Z,84.16
2022-11-07T01:26:35.546Z,84.26
2022-11-07T01:26:48.525Z,84.36
2022-11-07T01:26:59.295Z,84.36
2022-11-07T01:27:12.516Z,84.36
2022-11-07T01:27:26.275Z,84.36
2022-11-07T01:27:38.525Z,84.36
2022-11-07T01:27:49.317Z,84.47
2022-11-07T01:28:01.809Z,84.47
2022-11-07T01:28:12.643Z,84.47
2022-11-07T01:28:26.270Z,84.56
2022-11-07T01:28:37.105Z,84.67
2022-11-07T01:28:48.885Z,84.77
2022-11-07T01:29:00.636Z,84.77
2022-11-07T01:29:13.846Z,84.88
2022-11-07T01:29:24.638Z,84.88
2022-11-07T01:29:35.366Z,84.88
2022-11-07T01:29:46.126Z,84.88
2022-11-07T01:29:57.846Z,84.98
2022-11-07T01:30:08.645Z,84.98
2022-11-07T01:30:21.107Z,84.98
2022-11-07T01:30:31.885Z,84.98
2022-11-07T01:30:43.667Z,84.98
2022-11-07T01:30:55.396Z,84.98
2022-11-07T01:31:07.896Z,84.98
2022-11-07T01:31:19.636Z,84.98
2022-11-07T01:31:31.445Z,84.88
2022-11-07T01:31:43.864Z,84.88
2022-11-07T01:31:55.861Z,84.88
2022-11-07T01:32:07.913Z,84.88
2022-11-07T01:32:20.336Z,84.67
2022-11-07T01:32:32.856Z,84.47
2022-11-07T01:32:44.712Z,84.36
2022-11-07T01:32:57.247Z,84.05
2022-11-07T01:33:08.976Z,83.95
2022-11-07T01:33:19.726Z,83.95
2022-11-07T01:33:30.553Z,83.95
2022-11-07T01:33:43.026Z,83.95
2022-11-07T01:33:53.889Z,83.75
2022-11-07T01:34:05.656Z,83.64
2022-11-07T01:34:16.476Z,83.54
2022-11-07T01:34:27.281Z,83.40
2022-11-07T01:34:40.527Z,83.29
2022-11-07T01:34:53.007Z,83.40
2022-11-07T01:35:04.747Z,83.50
2022-11-07T01:35:18.489Z,83.50
2022-11-07T01:35:30.967Z,83.50
2022-11-07T01:35:42.709Z,83.50
2022-11-07T01:35:53.497Z,83.50
2022-11-07T01:36:06.246Z,83.50
2022-11-07T01:36:17.198Z,83.50
2022-11-07T01:36:27.994Z,83.50
2022-11-07T01:36:39.708Z,83.50
2022-11-07T01:36:50.488Z,83.50
2022-11-07T01:37:02.211Z,83.61
2022-11-07T01:37:12.958Z,83.61
2022-11-07T01:37:25.008Z,83.50
2022-11-07T01:37:36.739Z,83.50
2022-11-07T01:37:49.948Z,83.40
2022-11-07T01:38:02.419Z,83.50
2022-11-07T01:38:13.190Z,83.50
2022-11-07T01:38:23.973Z,83.50
2022-11-07T01:38:35.825Z,83.50
2022-11-07T01:38:46.679Z,83.61
2022-11-07T01:38:57.478Z,83.61
2022-11-07T01:39:08.287Z,83.61
2022-11-07T01:39:19.019Z,83.61
2022-11-07T01:39:30.770Z,83.50
2022-11-07T01:39:42.478Z,83.61
2022-11-07T01:39:54.238Z,83.61
2022-11-07T01:40:04.997Z,83.70
2022-11-07T01:40:15.778Z,83.61
2022-11-07T01:40:26.578Z,83.50
2022-11-07T01:40:38.300Z,83.50
2022-11-07T01:40:49.101Z,83.50
2022-11-07T01:41:00.829Z,83.50
2022-11-07T01:41:12.549Z,83.50
2022-11-07T01:41:25.311Z,83.50
2022-11-07T01:41:39.019Z,83.50
2022-11-07T01:41:49.868Z,83.50
2022-11-07T01:42:01.611Z,83.50
2022-11-07T01:42:14.099Z,83.50
2022-11-07T01:42:24.838Z,83.40
2022-11-07T01:42:37.360Z,83.40
2022-11-07T01:42:49.619Z,83.40
2022-11-07T01:43:00.449Z,83.40
2022-11-07T01:43:12.848Z,83.40
2022-11-07T01:43:25.389Z,83.50
2022-11-07T01:43:36.310Z,83.50
2022-11-07T01:43:48.029Z,83.61
2022-11-07T01:44:00.509Z,83.70
2022-11-07T01:44:12.251Z,83.70
2022-11-07T01:44:23.019Z,83.70
2022-11-07T01:44:35.499Z,83.61
2022-11-07T01:44:46.287Z,83.29
2022-11-07T01:44:59.069Z,83.19
2022-11-07T01:45:10.799Z,83.09
2022-11-07T01:45:23.279Z,83.09
2022-11-07T01:45:35.109Z,83.09
2022-11-07T01:45:47.309Z,83.09
2022-11-07T01:45:58.080Z,83.19
2022-11-07T01:46:08.866Z,83.19
2022-11-07T01:46:20.906Z,83.29
2022-11-07T01:46:32.619Z,83.29
2022-11-07T01:46:45.550Z,83.29
2022-11-07T01:46:57.334Z,83.29
2022-11-07T01:47:09.063Z,83.40
2022-11-07T01:47:21.777Z,83.40
2022-11-07T01:47:34.618Z,83.50
2022-11-07T01:47:45.409Z,83.70
2022-11-07T01:47:56.177Z,83.81
2022-11-07T01:48:09.893Z,83.81
2022-11-07T01:48:21.651Z,83.81
2022-11-07T01:48:33.412Z,83.81
2022-11-07T01:48:44.168Z,83.70
2022-11-07T01:48:56.157Z,83.61
2022-11-07T01:49:08.593Z,83.61
2022-11-07T01:49:19.381Z,83.61
2022-11-07T01:49:31.150Z,83.61
2022-11-07T01:49:42.914Z,83.61
2022-11-07T01:49:53.689Z,83.61
2022-11-07T01:50:05.514Z,83.40
2022-11-07T01:50:16.230Z,83.09
2022-11-07T01:50:28.691Z,82.99
2022-11-07T01:50:39.441Z,82.99
2022-11-07T01:50:51.249Z,82.99
2022-11-07T01:51:02.051Z,82.89
2022-11-07T01:51:14.322Z,82.89
2022-11-07T01:51:26.862Z,82.89
2022-11-07T01:51:38.641Z,82.99
2022-11-07T01:51:50.429Z,82.99
2022-11-07T01:52:02.182Z,83.09
2022-11-07T01:52:12.961Z,83.19
2022-11-07T01:52:23.761Z,83.29
2022-11-07T01:52:36.991Z,83.29
2022-11-07T01:52:48.748Z,83.29
2022-11-07T01:53:01.962Z,83.29
2022-11-07T01:53:14.724Z,83.29
2022-11-07T01:53:29.152Z,83.19
2022-11-07T01:53:42.394Z,83.09
2022-11-07T01:53:54.388Z,82.99
2022-11-07T01:54:05.235Z,82.89
2022-11-07T01:54:16.034Z,82.89
2022-11-07T01:54:26.794Z,82.89
2022-11-07T01:54:37.822Z,82.99
2022-11-07T01:54:48.595Z,82.99
2022-11-07T01:55:00.321Z,82.99
2022-11-07T01:55:12.590Z,82.99
2022-11-07T01:55:25.252Z,83.09
2022-11-07T01:55:37.240Z,83.19
2022-11-07T01:55:48.992Z,83.19
2022-11-07T01:56:01.775Z,83.29
2022-11-07T01:56:15.603Z,83.29
2022-11-07T01:56:28.070Z,83.40
2022-11-07T01:56:40.597Z,83.40
2022-11-07T01:56:53.072Z,83.50
2022-11-07T01:57:03.855Z,83.29
2022-11-07T01:57:14.614Z,83.19
2022-11-07T01:57:25.472Z,83.09
2022-11-07T01:57:36.283Z,82.99
2022-11-07T01:57:47.033Z,82.99
2022-11-07T01:57:59.573Z,82.99
2022-11-07T01:58:12.792Z,82.89
2022-11-07T01:58:23.594Z,82.78
2022-11-07T01:58:35.299Z,82.68
2022-11-07T01:58:46.992Z,82.68
2022-11-07T01:58:59.443Z,82.57
2022-11-07T01:59:11.183Z,82.57
2022-11-07T01:59:23.445Z,82.57
2022-11-07T01:59:35.158Z,82.57
2022-11-07T01:59:47.641Z,82.57
2022-11-07T01:59:59.392Z,82.47
2022-11-07T02:00:10.134Z,82.47
2022-11-07T02:00:20.891Z,82.57
2022-11-07T02:00:32.611Z,82.57
2022-11-07T02:00:43.400Z,82.68
2022-11-07T02:00:54.317Z,82.78
2022-11-07T02:01:06.074Z,82.68
2022-11-07T02:01:17.175Z,82.68
2022-11-07T02:01:28.051Z,82.68
2022-11-07T02:01:40.830Z,82.57
2022-11-07T02:01:51.967Z,82.47
2022-11-07T02:02:04.057Z,82.37
2022-11-07T02:02:15.973Z,82.37
2022-11-07T02:02:28.537Z,82.37
2022-11-07T02:02:41.206Z,82.47
2022-11-07T02:02:53.213Z,82.47
2022-11-07T02:03:05.353Z,82.47
2022-11-07T02:03:18.436Z,82.37
2022-11-07T02:03:30.685Z,82.37
2022-11-07T02:03:43.217Z,82.47
2022-11-07T02:03:53.995Z,82.57
2022-11-07T02:04:06.547Z,82.57
2022-11-07T02:04:19.131Z,82.57
2022-11-07T02:04:30.093Z,82.57
2022-11-07T02:04:43.785Z,82.68
2022-11-07T02:04:55.504Z,82.78
2022-11-07T02:05:06.266Z,82.99
2022-11-07T02:05:19.474Z,82.99
2022-11-07T02:05:31.256Z,82.89
2022-11-07T02:05:44.403Z,82.89
2022-11-07T02:05:56.134Z,82.89
2022-11-07T02:06:07.916Z,82.99
2022-11-07T02:06:19.693Z,82.99
2022-11-07T02:06:32.484Z,82.99
2022-11-07T02:06:44.725Z,82.78
2022-11-07T02:06:58.997Z,82.89
2022-11-07T02:07:11.477Z,82.99
2022-11-07T02:07:23.685Z,83.09
2022-11-07T02:07:35.975Z,82.99
2022-11-07T02:07:47.725Z,82.99
2022-11-07T02:08:00.176Z,82.99
2022-11-07T02:08:12.915Z,82.89
2022-11-07T02:08:25.355Z,82.89
2022-11-07T02:08:36.147Z,82.89
2022-11-07T02:08:48.345Z,82.89
2022-11-07T02:09:01.333Z,82.99
2022-11-07T02:09:12.086Z,82.99
2022-11-07T02:09:24.527Z,82.99
2022-11-07T02:09:37.005Z,82.99
2022-11-07T02:09:48.727Z,82.89
2022-11-07T02:10:00.985Z,82.89
2022-11-07T02:10:13.240Z,82.78
2022-11-07T02:10:25.807Z,82.68
2022-11-07T02:10:36.568Z,82.68
2022-11-07T02:10:49.008Z,82.68
2022-11-07T02:10:59.887Z,82.78
2022-11-07T02:11:12.405Z,82.78
2022-11-07T02:11:24.923Z,82.78
2022-11-07T02:11:36.735Z,82.68
2022-11-07T02:11:49.176Z,82.68
2022-11-07T02:12:01.387Z,82.68
2022-11-07T02:12:12.217Z,82.68
2022-11-07T02:12:22.984Z,82.68
2022-11-07T02:12:36.127Z,82.68
2022-11-07T02:12:47.925Z,82.68
2022-11-07T02:12:58.753Z,82.57
2022-11-07T02:13:11.398Z,82.47
2022-11-07T02:13:24.578Z,82.47
2022-11-07T02:13:36.346Z,82.47
2022-11-07T02:13:47.160Z,82.57
2022-11-07T02:13:59.666Z,82.68
2022-11-07T02:14:12.147Z,82.78
2022-11-07T02:14:25.108Z,82.78
2022-11-07T02:14:36.846Z,82.78
2022-11-07T02:14:47.627Z,82.78
2022-11-07T02:14:59.388Z,82.89
2022-11-07T02:15:11.170Z,82.99
2022-11-07T02:15:23.737Z,82.99
2022-11-07T02:15:34.517Z,83.09
2022-11-07T02:15:45.298Z,83.09
2022-11-07T02:15:57.537Z,83.09
2022-11-07T02:16:10.036Z,83.09
2022-11-07T02:16:21.757Z,83.09
2022-11-07T02:16:33.749Z,83.09
2022-11-07T02:16:44.658Z,83.09
2022-11-07T02:16:57.398Z,83.09
2022-11-07T02:17:09.907Z,83.19
2022-11-07T02:17:23.053Z,83.29
2022-11-07T02:17:34.941Z,83.19
2022-11-07T02:17:46.678Z,82.78
2022-11-07T02:17:58.465Z,82.57
2022-11-07T02:18:10.209Z,82.47
2022-11-07T02:18:21.988Z,82.37
2022-11-07T02:18:33.698Z,82.37
2022-11-07T02:18:45.431Z,82.47
2022-11-07T02:18:57.138Z,82.47
2022-11-07T02:19:09.877Z,82.47
2022-11-07T02:19:23.608Z,82.57
2022-11-07T02:19:35.346Z,82.78
2022-11-07T02:19:46.077Z,82.78
2022-11-07T02:19:57.798Z,82.78
2022-11-07T02:20:09.567Z,82.78
2022-11-07T02:20:20.351Z,82.78
2022-11-07T02:20:32.074Z,82.89
2022-11-07T02:20:42.862Z,82.89
2022-11-07T02:20:55.311Z,82.89
2022-11-07T02:21:07.758Z,82.68
2022-11-07T02:21:18.536Z,82.57
2022-11-07T02:21:30.300Z,82.57
2022-11-07T02:21:42.064Z,82.57
2022-11-07T02:21:53.831Z,82.57
2022-11-07T02:22:04.620Z,82.57
2022-11-07T02:22:15.380Z,82.57
2022-11-07T02:22:28.119Z,82.57
2022-11-07T02:22:41.275Z,82.47
2022-11-07T02:22:53.017Z,82.47
2022-11-07T02:23:05.458Z,82.47
2022-11-07T02:23:16.784Z,82.47
2022-11-07T02:23:28.888Z,82.57
2022-11-07T02:23:39.672Z,82.57
2022-11-07T02:23:52.152Z,82.57
2022-11-07T02:24:04.372Z,82.68
2022-11-07T02:24:15.251Z,82.68
2022-11-07T02:24:27.249Z,82.78
2022-11-07T02:24:39.275Z,82.78
2022-11-07T02:24:51.758Z,82.78
2022-11-07T02:25:03.557Z,82.78
2022-11-07T02:25:14.311Z,82.89
2022-11-07T02:25:25.109Z,82.89
2022-11-07T02:25:35.913Z,82.89
2022-11-07T02:25:48.401Z,82.89
2022-11-07T02:26:00.149Z,82.99
2022-11-07T02:26:10.939Z,82.99
2022-11-07T02:26:24.180Z,82.99
2022-11-07T02:26:36.489Z,82.99
2022-11-07T02:26:47.240Z,82.99
2022-11-07T02:26:57.999Z,82.99
2022-11-07T02:27:09.748Z,82.99
2022-11-07T02:27:20.538Z,83.09
2022-11-07T02:27:32.294Z,82.99
2022-11-07T02:27:44.849Z,82.89
2022-11-07T02:27:56.676Z,82.78
2022-11-07T02:28:08.392Z,82.68
2022-11-07T02:28:19.994Z,82.68
2022-11-07T02:28:30.781Z,82.68
2022-11-07T02:28:42.541Z,82.78
2022-11-07T02:28:53.590Z,82.78
2022-11-07T02:29:05.820Z,82.78
2022-11-07T02:29:16.612Z,82.78
2022-11-07T02:29:28.889Z,82.78
2022-11-07T02:29:41.747Z,82.78
2022-11-07T02:29:54.461Z,82.89
2022-11-07T02:30:06.210Z,82.89
2022-11-07T02:30:16.986Z,82.95
2022-11-07T02:30:29.421Z,82.99
2022-11-07T02:30:41.900Z,83.09
2022-11-07T02:30:53.661Z,83.19
2022-11-07T02:31:06.913Z,83.19
2022-11-07T02:31:17.713Z,83.09
2022-11-07T02:31:29.962Z,83.09
2022-11-07T02:31:40.733Z,82.89
2022-11-07T02:31:52.971Z,82.57